Aérodrome :
LOGIN :

S'inscrire | Disclaimer

   EN    FR    IT 

 










Légende :    VFR   VFR Marginal   IFR   IFR Intensif   IFR Très Intensif
Visi : 
Plafond : 
>= 8 km
>= 3000ft
5 à 8 km
1000 à 3000 ft
1500m à 5 km
500 à 1000 ft
800 à 1500m
200 à 500 ft
< 800m
< 200 ft
Symboles :   Orages  Brouillard  Fortes neiges  Fortes précipitations  Vent > 20 kt
SIGMETs :   Divers  Orages  Givrage  Turbulence  Onde Orograph.  Cendres Volcan.






- Altitude de l'aérodrome : 138 ft
- Code IATA : RLG


ETNL - Rostock Laage

DERNIER METAR :
  • 221820Z 24005KT 9999 FEW032 11/09 Q1023 BLU+FCST CANCEL

METARs EXPIRÉS :
  • 221720Z 23005KT 9999 BKN032 12/09 Q1023 BLU BLU TEMPO WHT
  • 221620Z 23006KT 9999 BKN031 13/09 Q1022 BLU BLU TEMPO WHT

TAF TAF ETNL
Valide du 22 à 17h jusqu'au 23 à 05h UTC


221620Z 2217/2305 25008KT 9999 NSW FEW015 BKN030
TEMPO 2217/2223 23005KT 7000 NSW BKN015 SCT040
PROB30 2220/2322 VRB03KT 4000 MIFG FEW015 FEW150
PROB30 2222/2305 VRB02KT 0500 FG BKN001 BY ETGL



MET'MAP, la Météo Aéronautique d'un coup d'oeil ! - Copyright ORBIFLY Décembre 2007 - Disclaimer

ORBIFLY MET'MAP TEAM :

Programmation & Développement : Alexandra Zaïnal
Conception & Développement : Baudouin d'Aumeries
Co-Programmation & Développement : Marc-Olivier Méhu
Soutien technique & logistique : Manuel Goepfert

Contact : metmap@orbifly.com




SOURCES & CREDITS :

   NOAA